Terminal Aerodrome Forecast
Issued by NWS Cleveland, OH

Home | Current Version | Previous Version | Graphics & Text | Print | Product List | Glossary On
Versions: 1 2 3 4 5 6 7 8 9 10 11 12 13 14 15 16 17 18 19 20 21 22
298
FTUS41 KCLE 260128 AAA
TAFCAK
TAF AMD
KCAK 260128Z 2601/2624 24004KT 6SM -RA BR BKN008 OVC045
      TEMPO 2601/2605 4SM -RA BR SCT008 OVC045
     FM260500 28007KT 5SM BR VCSH OVC011
     FM260600 29008KT 5SM BR VCSH OVC006
     FM261500 29008KT P6SM OVC015
     FM262100 28009KT P6SM SCT025 BKN035=

USA.gov is the U.S. government's official web portal to all federal, state and local government web resources and services.